Burghill, Ohio
Current Conditions -  °F | °C
As of 8:51 PM on Tuesday 25 Nov 2014 (Local Time) from KYNG Reporting Station
Overcast Overcast  
Wind Chill: 27°   Ceiling: 2200
Heat Index: 34°   Visibility: 10mi
Dew Point: 27°   Wind: 8mph
Humidity: 75%   Direction: 300°WNW
Pressure: 30.16"   Gusts: NA
Location:  41.33°N, 80.54°W
Report Text: KYNG 260151Z 30007KT 10SM BKN022 OVC031 01/M03 A3016 RMK AO2 SLP226 T00111028
Loading
Personal Weather Stations






























Interactive Weather Map New forecast layout! Learn more

10-Day Weather Forecast

Advertisements
Track Severe Weather on mobile